Time;durP1;ratioP1;P1;durP2;ratioP2;P2;SDS_P1;SDS_P2;PMS_P1;PMS_P2;Temp;Humidity;BMP_temperature;BMP_pressure;BME280_temperature;BME280_humidity;BME280_pressure;Samples;Min_cycle;Max_cycle;Signal;HPM_P1;HPM_P2
2023/07/27 00:02:10;;;;;;;17.30;16.08;;;;;;;17.09;54.47;99886.38;4972542;28;98810;-76
2023/07/27 00:04:35;;;;;;;16.73;15.73;;;;;;;17.05;54.65;99874.28;4972997;28;97223;-75
2023/07/27 00:07:01;;;;;;;17.15;16.02;;;;;;;17.02;54.92;99869.19;4972876;28;96957;-75
2023/07/27 00:09:26;;;;;;;17.02;15.93;;;;;;;17.02;54.72;99871.00;4977465;28;99001;-75
2023/07/27 00:11:54;;;;;;;17.17;15.98;;;;;;;17.00;54.69;99879.06;4979503;28;98774;-76
2023/07/27 00:14:20;;;;;;;17.98;16.63;;;;;;;17.01;54.65;99875.44;4978814;28;96757;-75
2023/07/27 00:16:45;;;;;;;16.67;15.60;;;;;;;17.00;54.77;99875.56;4977902;28;97481;-75
2023/07/27 00:19:11;;;;;;;16.63;15.55;;;;;;;17.01;54.85;99874.59;4989542;28;98777;-76
2023/07/27 00:21:36;;;;;;;16.77;15.77;;;;;;;16.99;54.61;99872.06;4990644;28;98681;-76
2023/07/27 00:24:02;;;;;;;17.25;16.02;;;;;;;16.95;54.74;99876.69;4979505;28;97341;-77
2023/07/27 00:26:27;;;;;;;17.15;15.85;;;;;;;16.94;54.98;99871.53;4981428;28;96698;-75
2023/07/27 00:28:53;;;;;;;18.15;16.65;;;;;;;16.91;55.05;99880.53;4979004;28;98721;-75
2023/07/27 00:31:18;;;;;;;17.27;16.17;;;;;;;16.85;55.52;99872.97;4976949;28;100122;-75
2023/07/27 00:33:44;;;;;;;16.92;15.82;;;;;;;16.85;55.36;99880.09;4987065;28;96915;-75
2023/07/27 00:36:09;;;;;;;17.92;16.73;;;;;;;16.81;55.57;99868.81;4977358;28;96919;-75
2023/07/27 00:38:35;;;;;;;16.98;15.68;;;;;;;16.82;55.46;99877.66;4972214;28;98699;-76
2023/07/27 00:41:02;;;;;;;17.75;16.50;;;;;;;16.79;55.45;99870.75;4973309;28;100338;-75
2023/07/27 00:43:27;;;;;;;18.40;16.85;;;;;;;16.78;55.28;99881.44;4977471;28;97214;-76
2023/07/27 00:45:53;;;;;;;16.83;15.43;;;;;;;16.73;55.27;99873.78;4976109;28;96894;-75
2023/07/27 00:48:19;;;;;;;16.85;15.55;;;;;;;16.74;55.66;99881.63;4975767;28;99190;-76
2023/07/27 00:50:46;;;;;;;17.73;16.63;;;;;;;16.71;55.45;99878.31;4985477;28;98429;-76
2023/07/27 00:53:12;;;;;;;17.10;15.88;;;;;;;16.69;55.60;99882.88;4977624;28;96829;-76
2023/07/27 00:55:38;;;;;;;16.92;15.82;;;;;;;16.72;55.50;99880.00;4977570;28;97079;-75
2023/07/27 00:58:03;;;;;;;17.60;16.27;;;;;;;16.68;55.54;99881.19;4982210;28;98943;-75
2023/07/27 01:00:32;;;;;;;16.67;15.68;;;;;;;16.68;55.88;99875.88;4959285;28;100631;-76
2023/07/27 01:03:00;;;;;;;16.65;15.63;;;;;;;16.67;55.90;99876.84;4986701;28;96645;-75
2023/07/27 01:05:26;;;;;;;16.73;15.50;;;;;;;16.64;55.76;99866.41;4972515;28;97421;-75
2023/07/27 01:07:51;;;;;;;17.17;15.88;;;;;;;16.63;55.73;99873.53;4984089;28;98540;-75
2023/07/27 01:10:17;;;;;;;17.40;16.30;;;;;;;16.62;56.07;99868.34;4978816;28;97576;-76
2023/07/27 01:12:55;;;;;;;17.25;16.02;;;;;;;16.55;56.20;99867.03;4977065;28;96902;-75
2023/07/27 01:15:26;;;;;;;18.73;17.30;;;;;;;16.56;56.15;99860.78;4977914;28;97246;-75
2023/07/27 01:18:10;;;;;;;17.65;16.23;;;;;;;16.54;56.15;99863.53;4986604;28;99053;-77
2023/07/27 01:20:54;;;;;;;18.20;16.23;;;;;;;16.50;56.14;99870.00;4977792;28;98356;-77
2023/07/27 01:23:45;;;;;;;18.48;17.00;;;;;;;16.46;56.46;99858.75;4971688;28;96917;-76
2023/07/27 01:26:40;;;;;;;17.27;16.17;;;;;;;16.47;55.98;99857.78;4986216;28;97116;-75
2023/07/27 01:29:31;;;;;;;16.42;15.43;;;;;;;16.46;56.17;99872.00;4976207;28;100517;-75
2023/07/27 01:31:56;;;;;;;17.33;16.23;;;;;;;16.47;56.32;99862.25;4975573;28;97377;-77
2023/07/27 01:34:27;;;;;;;18.60;17.17;;;;;;;16.43;56.48;99864.22;4980270;28;97476;-75
2023/07/27 01:36:59;;;;;;;17.08;15.80;;;;;;;16.43;56.63;99863.38;4970746;28;96828;-75
2023/07/27 01:39:26;;;;;;;17.40;16.05;;;;;;;16.40;56.93;99863.59;4975424;28;97900;-75
2023/07/27 01:41:53;;;;;;;17.63;16.42;;;;;;;16.39;57.18;99862.75;4971894;28;100448;-75
2023/07/27 01:44:19;;;;;;;17.02;15.73;;;;;;;16.34;57.13;99869.28;4971571;28;96799;-76
2023/07/27 01:46:45;;;;;;;17.42;16.23;;;;;;;16.30;57.31;99871.28;4970899;28;96830;-76
2023/07/27 01:49:12;;;;;;;16.50;15.10;;;;;;;16.27;57.14;99872.34;4972482;28;98635;-75
2023/07/27 01:51:39;;;;;;;16.58;15.57;;;;;;;16.29;56.65;99866.97;4976598;28;98288;-75
2023/07/27 01:54:06;;;;;;;16.85;15.85;;;;;;;16.28;56.85;99871.38;4966714;28;96915;-75
2023/07/27 01:56:32;;;;;;;17.75;16.58;;;;;;;16.29;56.94;99872.25;4971072;28;96875;-76
2023/07/27 01:58:59;;;;;;;17.85;16.55;;;;;;;16.27;56.69;99869.69;4977483;28;99173;-75
2023/07/27 02:01:25;;;;;;;17.50;16.30;;;;;;;16.29;56.90;99866.97;4961209;28;101716;-75
2023/07/27 02:03:51;;;;;;;16.45;15.45;;;;;;;16.29;56.77;99870.44;4957664;28;97189;-75
2023/07/27 02:06:17;;;;;;;17.52;16.13;;;;;;;16.26;57.17;99864.47;4972283;28;96779;-75
2023/07/27 02:08:42;;;;;;;17.65;16.48;;;;;;;16.24;57.38;99864.59;4979709;28;100194;-75
2023/07/27 02:11:09;;;;;;;17.48;16.17;;;;;;;16.24;57.31;99861.94;4970577;28;100068;-75
2023/07/27 02:14:04;;;;;;;17.02;15.85;;;;;;;16.23;57.38;99862.03;4969874;28;97312;-76
2023/07/27 02:16:59;;;;;;;17.23;15.98;;;;;;;16.22;57.60;99861.19;4958214;28;96896;-77
2023/07/27 02:19:30;;;;;;;17.95;16.83;;;;;;;16.25;57.46;99860.13;4987166;28;100990;-78
2023/07/27 02:21:56;;;;;;;18.35;16.88;;;;;;;16.26;57.63;99869.78;4988359;28;99072;-78
2023/07/27 02:24:22;;;;;;;17.42;16.33;;;;;;;16.24;58.01;99869.88;4989606;28;96765;-78
2023/07/27 02:26:48;;;;;;;17.17;16.08;;;;;;;16.26;58.36;99868.00;4956303;28;96909;-77
2023/07/27 02:29:13;;;;;;;16.98;15.77;;;;;;;16.26;58.24;99865.34;4954668;28;100562;-76
2023/07/27 02:31:39;;;;;;;17.45;16.17;;;;;;;16.30;58.16;99874.78;4980362;28;98485;-76
2023/07/27 02:34:04;;;;;;;17.98;16.67;;;;;;;16.32;58.16;99874.69;4976371;28;98207;-75
2023/07/27 02:36:32;;;;;;;17.30;16.08;;;;;;;16.34;58.28;99875.44;4979392;28;96764;-75
2023/07/27 02:38:58;;;;;;;17.00;15.85;;;;;;;16.35;58.21;99871.84;4984717;28;98521;-75
2023/07/27 02:41:23;;;;;;;18.08;16.60;;;;;;;16.38;58.15;99873.47;4971957;28;100496;-75
2023/07/27 02:43:50;;;;;;;18.05;16.75;;;;;;;16.39;57.83;99875.16;4970890;28;97409;-75
2023/07/27 02:46:17;;;;;;;17.80;16.70;;;;;;;16.38;58.03;99876.94;4979866;28;96906;-75
2023/07/27 02:48:42;;;;;;;18.00;16.75;;;;;;;16.41;57.95;99882.03;4986185;28;100432;-76
2023/07/27 02:51:08;;;;;;;18.15;16.85;;;;;;;16.39;57.77;99878.63;4969344;28;99254;-76
2023/07/27 02:53:33;;;;;;;17.45;16.17;;;;;;;16.42;57.88;99880.25;4983976;28;97698;-75
2023/07/27 02:56:02;;;;;;;17.88;16.70;;;;;;;16.40;57.81;99879.47;4990112;28;97473;-75
2023/07/27 02:58:36;;;;;;;18.73;17.38;;;;;;;16.42;57.83;99891.69;4992072;28;99299;-75
2023/07/27 03:01:05;;;;;;;18.75;17.23;;;;;;;16.42;58.17;99889.03;4985255;28;100434;-76
2023/07/27 03:03:32;;;;;;;18.58;17.27;;;;;;;16.42;58.22;99888.19;4992469;28;97080;-76
2023/07/27 03:06:10;;;;;;;18.80;17.20;;;;;;;16.41;58.43;99889.16;4980715;28;96875;-75
2023/07/27 03:08:38;;;;;;;19.23;17.48;;;;;;;16.38;58.30;99887.53;4976240;28;100680;-75
2023/07/27 03:11:05;;;;;;;18.77;17.25;;;;;;;16.41;58.14;99895.28;4982591;28;100278;-76
2023/07/27 03:13:31;;;;;;;18.70;17.15;;;;;;;16.40;58.14;99893.56;4982804;28;97001;-77
2023/07/27 03:15:57;;;;;;;18.85;17.25;;;;;;;16.42;58.05;99904.09;4989647;28;97441;-76
2023/07/27 03:18:22;;;;;;;18.73;17.42;;;;;;;16.45;57.81;99895.94;4991423;28;100388;-75
2023/07/27 03:20:48;;;;;;;18.63;17.40;;;;;;;16.47;57.84;99891.41;4977069;28;98485;-75
2023/07/27 03:23:13;;;;;;;18.55;17.20;;;;;;;16.46;57.88;99887.91;4980531;28;96776;-75
2023/07/27 03:25:40;;;;;;;18.73;17.27;;;;;;;16.50;57.62;99889.38;4977628;28;96813;-78
2023/07/27 03:28:07;;;;;;;18.27;16.90;;;;;;;16.52;57.47;99897.22;4972451;28;100403;-75
2023/07/27 03:30:38;;;;;;;18.55;17.02;;;;;;;16.56;57.17;99896.09;4983882;28;98327;-75
2023/07/27 03:33:04;;;;;;;18.13;16.77;;;;;;;16.57;56.74;99894.28;4980635;28;96824;-75
2023/07/27 03:35:30;;;;;;;17.52;16.42;;;;;;;16.58;56.95;99896.84;4993476;28;97094;-75
2023/07/27 03:37:56;;;;;;;17.67;16.58;;;;;;;16.61;57.05;99890.47;4974004;28;97654;-75
2023/07/27 03:40:21;;;;;;;18.00;16.63;;;;;;;16.64;57.16;99890.25;4971304;28;100323;-75
2023/07/27 03:42:47;;;;;;;17.67;16.58;;;;;;;16.65;57.16;99895.47;4973983;28;96837;-75
2023/07/27 03:45:14;;;;;;;16.27;15.18;;;;;;;16.68;57.27;99897.06;4976264;28;96920;-75
2023/07/27 03:47:41;;;;;;;16.58;15.57;;;;;;;16.70;56.97;99889.88;4979253;28;98437;-75
2023/07/27 03:50:07;;;;;;;16.95;15.52;;;;;;;16.75;56.99;99896.59;4984130;28;97298;-75
2023/07/27 03:52:33;;;;;;;16.60;15.57;;;;;;;16.81;56.84;99891.84;4981452;28;96617;-75
2023/07/27 03:54:59;;;;;;;17.05;15.90;;;;;;;16.88;56.74;99890.50;4978735;28;96819;-75
2023/07/27 03:57:25;;;;;;;17.23;16.00;;;;;;;16.96;56.75;99888.19;4972074;28;98659;-76
2023/07/27 03:59:57;;;;;;;16.85;15.68;;;;;;;17.02;56.48;99881.63;4978737;28;97332;-75
2023/07/27 04:02:23;;;;;;;18.10;16.90;;;;;;;17.05;56.52;99887.56;4977096;28;97915;-75
2023/07/27 04:04:49;;;;;;;19.42;18.00;;;;;;;17.11;56.36;99888.94;4972101;28;96828;-76
2023/07/27 04:07:15;;;;;;;18.80;17.58;;;;;;;17.16;55.96;99892.97;4979565;28;98863;-75
2023/07/27 04:09:40;;;;;;;18.52;17.00;;;;;;;17.14;55.78;99892.22;4990394;28;98841;-75
2023/07/27 04:12:06;;;;;;;17.20;15.98;;;;;;;17.16;55.78;99895.63;4984802;28;97179;-75
2023/07/27 04:14:31;;;;;;;17.60;16.25;;;;;;;17.16;55.29;99895.63;4955249;28;96831;-75
2023/07/27 04:16:57;;;;;;;18.83;17.42;;;;;;;17.20;55.52;99898.91;4972878;28;98677;-76
2023/07/27 04:19:22;;;;;;;18.92;17.52;;;;;;;17.22;55.27;99897.03;4972459;28;98522;-75
2023/07/27 04:21:48;;;;;;;17.60;16.30;;;;;;;17.25;55.38;99904.75;4977216;28;96972;-76
2023/07/27 04:24:13;;;;;;;18.75;17.52;;;;;;;17.31;55.20;99899.03;4972902;28;96930;-75
2023/07/27 04:26:39;;;;;;;18.65;17.45;;;;;;;17.36;54.94;99904.84;4984749;28;100531;-75
2023/07/27 04:29:04;;;;;;;18.90;17.25;;;;;;;17.41;54.68;99897.44;4980417;28;98350;-75
2023/07/27 04:31:30;;;;;;;18.73;17.05;;;;;;;17.50;54.62;99898.59;4980035;28;96765;-75
2023/07/27 04:33:55;;;;;;;18.02;16.83;;;;;;;17.59;54.55;99897.09;4973806;28;97144;-75
2023/07/27 04:36:21;;;;;;;19.00;17.45;;;;;;;17.65;54.17;99897.53;4972816;28;98897;-75
2023/07/27 04:38:46;;;;;;;18.77;17.27;;;;;;;17.76;53.96;99903.91;4970632;28;98270;-76
2023/07/27 04:41:12;;;;;;;19.55;17.60;;;;;;;17.84;53.53;99904.25;4980970;28;97106;-75
2023/07/27 04:43:37;;;;;;;18.95;17.55;;;;;;;17.98;53.51;99903.28;4977451;28;96839;-75
2023/07/27 04:46:03;;;;;;;18.38;16.85;;;;;;;18.05;52.88;99891.22;4978653;28;98628;-75
2023/07/27 04:48:28;;;;;;;17.13;16.00;;;;;;;18.13;53.15;99890.69;4977980;28;98509;-75
2023/07/27 04:50:54;;;;;;;18.65;17.23;;;;;;;18.19;52.44;99893.75;4970648;28;97379;-75
2023/07/27 04:53:20;;;;;;;18.75;17.45;;;;;;;18.34;52.18;99894.44;4980012;28;96810;-75
2023/07/27 04:55:46;;;;;;;17.63;16.42;;;;;;;18.47;52.41;99899.69;4973474;28;99397;-75
2023/07/27 04:58:12;;;;;;;18.77;16.48;;;;;;;18.60;52.23;99897.84;4984002;28;98720;-76
2023/07/27 05:00:37;;;;;;;17.98;16.75;;;;;;;18.74;51.73;99908.31;4970264;28;96720;-75
2023/07/27 05:03:03;;;;;;;18.48;16.95;;;;;;;18.89;51.47;99898.34;4979788;28;97414;-75
2023/07/27 05:05:28;;;;;;;18.98;17.83;;;;;;;19.02;51.45;99890.28;4991153;28;98716;-75
2023/07/27 05:07:54;;;;;;;18.52;17.30;;;;;;;19.11;51.13;99894.94;4976946;28;98713;-75
2023/07/27 05:10:19;;;;;;;18.33;17.17;;;;;;;19.27;50.88;99897.25;4985579;28;96793;-75
2023/07/27 05:12:45;;;;;;;17.67;16.48;;;;;;;19.40;50.48;99895.34;4972199;28;97086;-75
2023/07/27 05:15:10;;;;;;;19.20;17.75;;;;;;;19.57;50.45;99888.69;4985286;28;98828;-75
2023/07/27 05:17:36;;;;;;;17.38;16.27;;;;;;;19.83;50.03;99896.47;4980771;28;98381;-75
2023/07/27 05:20:02;;;;;;;17.63;16.42;;;;;;;20.08;49.30;99895.38;4971374;28;97056;-75
2023/07/27 05:22:28;;;;;;;18.15;16.95;;;;;;;20.33;48.67;99903.09;4978740;28;98290;-75
2023/07/27 05:24:53;;;;;;;19.00;17.83;;;;;;;20.48;48.64;99898.31;4971425;28;98681;-76
2023/07/27 05:27:19;;;;;;;18.40;17.00;;;;;;;20.68;48.19;99895.84;4989610;28;98383;-75
2023/07/27 05:29:44;;;;;;;18.10;16.77;;;;;;;20.87;48.04;99900.50;4971168;28;96662;-75
2023/07/27 05:32:10;;;;;;;17.90;16.63;;;;;;;21.06;47.53;99903.34;4986086;28;97888;-75
2023/07/27 05:34:35;;;;;;;18.23;16.50;;;;;;;21.20;47.23;99908.31;4971226;28;99409;-75
2023/07/27 05:37:06;;;;;;;18.27;16.77;;;;;;;21.45;47.02;99917.78;4971078;28;98369;-75
2023/07/27 05:39:32;;;;;;;18.05;16.65;;;;;;;21.51;46.45;99907.56;4944998;28;96806;-75
2023/07/27 05:41:58;;;;;;;18.40;16.92;;;;;;;21.93;45.70;99914.53;4977654;28;98155;-75
2023/07/27 05:44:24;;;;;;;17.88;16.67;;;;;;;22.42;45.33;99913.81;4970807;28;98729;-78
2023/07/27 05:46:55;;;;;;;17.48;16.42;;;;;;;23.00;44.52;99909.38;4972091;28;98925;-78
2023/07/27 05:49:21;;;;;;;19.10;17.55;;;;;;;23.71;42.54;99914.34;4981750;28;97159;-78
2023/07/27 05:51:46;;;;;;;17.88;16.77;;;;;;;24.70;41.05;99911.00;4971210;28;96973;-78
2023/07/27 05:54:12;;;;;;;17.73;16.40;;;;;;;26.45;38.25;99906.41;4971140;28;98816;-78
2023/07/27 05:56:37;;;;;;;19.20;17.88;;;;;;;27.76;35.95;99904.53;4970929;28;98516;-79
2023/07/27 05:59:03;;;;;;;18.15;17.05;;;;;;;28.72;33.87;99890.97;4971739;28;96662;-79
2023/07/27 06:01:28;;;;;;;17.73;16.60;;;;;;;29.75;32.15;99901.19;4974661;28;97259;-79
2023/07/27 06:03:54;;;;;;;17.67;16.38;;;;;;;30.53;31.17;99894.25;4973239;28;98764;-79
2023/07/27 06:06:19;;;;;;;17.55;16.38;;;;;;;31.24;30.14;99893.47;4975510;28;98607;-79
2023/07/27 06:08:45;;;;;;;18.77;17.38;;;;;;;31.99;29.19;99890.03;4978466;28;97610;-79
2023/07/27 06:11:10;;;;;;;17.67;16.52;;;;;;;32.64;28.97;99900.50;4989079;28;97243;-79
2023/07/27 06:13:36;;;;;;;17.67;16.55;;;;;;;33.29;28.24;99889.91;4982351;28;98863;-79
2023/07/27 06:16:02;;;;;;;17.63;16.63;;;;;;;33.36;27.52;99891.53;4971020;28;98267;-79
2023/07/27 06:18:28;;;;;;;17.30;16.20;;;;;;;33.76;27.25;99888.78;4974673;28;96781;-79
2023/07/27 06:20:53;;;;;;;17.40;16.33;;;;;;;34.29;26.50;99890.47;4970746;28;97403;-79
2023/07/27 06:23:19;;;;;;;18.10;17.00;;;;;;;34.81;25.38;99887.69;4975313;28;98908;-79
2023/07/27 06:25:45;;;;;;;17.73;16.35;;;;;;;35.20;25.18;99888.41;4971766;28;98166;-79
2023/07/27 06:28:11;;;;;;;18.05;16.90;;;;;;;35.49;25.05;99886.88;4980797;28;97006;-79
2023/07/27 06:30:40;;;;;;;18.60;17.30;;;;;;;35.86;24.62;99884.22;4973792;28;96788;-79
2023/07/27 06:33:05;;;;;;;17.95;16.75;;;;;;;36.29;23.72;99877.81;4977141;28;98994;-79
2023/07/27 06:35:32;;;;;;;17.05;16.05;;;;;;;36.70;23.52;99887.94;4976802;28;98698;-79
2023/07/27 06:37:58;;;;;;;18.20;17.05;;;;;;;37.03;23.38;99881.13;4985108;28;97644;-79
2023/07/27 06:40:25;;;;;;;18.85;17.42;;;;;;;37.46;23.30;99885.44;4975963;28;97084;-83
2023/07/27 06:42:50;;;;;;;17.50;16.50;;;;;;;37.92;22.58;99890.03;4973347;28;99022;-80
2023/07/27 06:45:16;;;;;;;17.13;15.82;;;;;;;38.18;21.88;99888.66;4974633;28;98232;-79
2023/07/27 06:47:42;;;;;;;16.88;15.85;;;;;;;38.53;21.93;99882.22;4976363;28;96933;-79
2023/07/27 06:50:07;;;;;;;17.88;16.65;;;;;;;38.91;21.04;99878.78;4988445;28;97008;-82
2023/07/27 06:52:33;;;;;;;18.45;17.00;;;;;;;39.31;20.86;99875.06;4979607;28;98711;-81
2023/07/27 06:54:58;;;;;;;17.88;16.73;;;;;;;39.57;20.69;99873.50;4984047;28;98703;-81
2023/07/27 06:57:27;;;;;;;18.15;16.85;;;;;;;40.00;20.42;99873.75;4989009;28;96934;-81
2023/07/27 06:59:53;;;;;;;16.65;15.75;;;;;;;40.35;20.18;99881.63;4986686;28;96986;-80
2023/07/27 07:02:18;;;;;;;17.38;16.27;;;;;;;40.57;19.84;99870.56;4979548;28;98968;-80
2023/07/27 07:04:45;;;;;;;18.27;17.20;;;;;;;40.93;19.53;99873.63;4973457;28;98419;-80
2023/07/27 07:07:11;;;;;;;19.38;18.10;;;;;;;41.31;19.03;99879.97;4974577;28;96682;-80
2023/07/27 07:09:38;;;;;;;17.05;15.88;;;;;;;41.55;18.87;99878.50;4987989;28;97022;-80
2023/07/27 07:12:04;;;;;;;17.55;16.55;;;;;;;42.03;18.74;99887.56;4985824;28;99080;-80
2023/07/27 07:14:30;;;;;;;16.08;15.18;;;;;;;42.36;18.49;99879.97;4974206;28;98505;-80
2023/07/27 07:16:55;;;;;;;17.50;16.50;;;;;;;42.44;18.00;99873.88;4984250;28;97223;-80
2023/07/27 07:19:21;;;;;;;17.30;16.30;;;;;;;42.60;17.76;99873.94;4974151;28;98599;-80
2023/07/27 07:21:47;;;;;;;18.20;17.02;;;;;;;42.92;17.56;99881.97;4978320;28;98259;-81
2023/07/27 07:24:12;;;;;;;18.95;17.83;;;;;;;43.46;17.45;99875.81;4979648;28;98580;-80
2023/07/27 07:26:38;;;;;;;15.00;14.20;;;;;;;43.72;17.17;99882.09;4973295;28;96953;-81
2023/07/27 07:29:04;;;;;;;15.77;14.57;;;;;;;44.05;16.76;99879.78;4973722;28;97162;-80
2023/07/27 07:31:30;;;;;;;17.85;16.85;;;;;;;44.41;16.42;99874.88;4977944;28;98692;-81
2023/07/27 07:33:56;;;;;;;17.88;16.88;;;;;;;44.84;16.20;99868.75;4976875;28;97318;-80
2023/07/27 07:36:22;;;;;;;18.00;16.67;;;;;;;45.00;16.18;99872.19;4980969;28;96744;-80
2023/07/27 07:38:47;;;;;;;17.35;16.17;;;;;;;45.35;16.67;99866.34;4990403;28;96768;-80
2023/07/27 07:41:13;;;;;;;17.42;16.33;;;;;;;45.83;15.87;99868.28;4972129;28;98499;-80
2023/07/27 07:43:41;;;;;;;17.60;16.25;;;;;;;46.11;15.53;99865.69;4973189;28;98696;-80
2023/07/27 07:46:11;;;;;;;17.70;16.50;;;;;;;46.43;15.45;99862.19;4973648;28;96671;-80
2023/07/27 07:48:36;;;;;;;16.75;15.85;;;;;;;46.52;14.85;99865.94;4973401;28;97537;-80
2023/07/27 07:51:02;;;;;;;18.05;16.95;;;;;;;46.77;14.73;99864.69;4989040;28;98719;-80
2023/07/27 07:53:27;;;;;;;17.45;16.45;;;;;;;46.92;14.55;99864.44;4988428;28;98283;-80
2023/07/27 07:55:52;;;;;;;16.77;15.75;;;;;;;47.18;14.73;99867.59;4976129;28;96698;-80
2023/07/27 07:58:18;;;;;;;17.55;16.35;;;;;;;47.22;14.37;99856.72;4979015;28;96791;-80
2023/07/27 08:00:43;;;;;;;17.60;16.60;;;;;;;47.27;14.34;99858.53;4978189;28;98717;-80
2023/07/27 08:03:09;;;;;;;17.30;16.20;;;;;;;47.59;14.42;99852.09;4972711;28;98465;-81
2023/07/27 08:05:34;;;;;;;17.38;16.27;;;;;;;47.79;14.04;99848.06;4976235;28;96695;-80
2023/07/27 08:08:01;;;;;;;18.27;17.17;;;;;;;47.48;14.14;99842.31;4973677;28;97268;-80
2023/07/27 08:10:26;;;;;;;18.65;17.55;;;;;;;47.17;14.33;99840.94;4985232;28;98883;-80
2023/07/27 08:12:53;;;;;;;17.83;16.50;;;;;;;47.34;14.21;99850.63;4985641;28;98390;-81
2023/07/27 08:15:19;;;;;;;18.67;17.58;;;;;;;46.10;15.09;99848.25;4973140;28;97382;-81
2023/07/27 08:17:44;;;;;;;17.40;16.42;;;;;;;44.29;15.69;99841.19;4982041;28;97436;-80
2023/07/27 08:20:10;;;;;;;17.75;16.70;;;;;;;43.52;16.09;99849.84;4975666;28;98761;-80
2023/07/27 08:22:37;;;;;;;17.27;16.13;;;;;;;44.50;15.95;99842.72;4982718;28;98637;-80
2023/07/27 08:25:05;;;;;;;18.15;16.75;;;;;;;42.28;17.49;99847.38;4973804;28;96718;-84
2023/07/27 08:27:34;;;;;;;17.45;16.27;;;;;;;42.61;17.38;99848.00;4974026;28;96889;-85
2023/07/27 08:29:59;;;;;;;16.83;15.82;;;;;;;42.11;17.04;99838.53;4971331;28;99123;-89
2023/07/27 08:32:25;;;;;;;16.83;15.82;;;;;;;43.52;16.17;99826.88;4976517;28;98258;-81
2023/07/27 08:34:50;;;;;;;16.60;15.60;;;;;;;44.56;15.36;99829.66;4977682;28;97114;-81
2023/07/27 08:37:16;;;;;;;16.48;15.57;;;;;;;45.37;15.38;99821.72;4970588;28;97177;-82
2023/07/27 08:39:41;;;;;;;18.02;16.88;;;;;;;45.89;15.32;99821.91;4975618;28;99063;-80
2023/07/27 08:42:08;;;;;;;16.77;15.77;;;;;;;45.17;15.29;99820.81;4976401;28;98456;-81
2023/07/27 08:44:33;;;;;;;16.75;15.75;;;;;;;44.96;15.29;99814.66;4977860;28;96796;-80
2023/07/27 08:47:00;;;;;;;17.38;16.27;;;;;;;45.08;14.81;99808.72;4991573;28;96844;-79
2023/07/27 08:49:26;;;;;;;17.08;16.08;;;;;;;45.01;15.57;99807.44;4985440;28;99164;-79
2023/07/27 08:51:51;;;;;;;16.92;15.93;;;;;;;43.38;15.91;99808.19;4980721;28;98207;-79
2023/07/27 08:54:17;;;;;;;16.48;15.57;;;;;;;42.89;16.14;99810.75;4979395;28;98093;-82
2023/07/27 08:56:42;;;;;;;16.40;15.50;;;;;;;42.68;16.29;99808.00;4972556;28;96867;-77
2023/07/27 08:59:08;;;;;;;16.70;15.70;;;;;;;42.77;16.84;99807.47;4983578;28;98562;-83
2023/07/27 09:01:33;;;;;;;17.02;16.02;;;;;;;42.64;16.76;99808.81;4975280;28;98420;-83
2023/07/27 09:03:59;;;;;;;17.10;16.10;;;;;;;42.43;17.09;99803.31;4972490;28;97639;-78
2023/07/27 09:06:37;;;;;;;17.90;16.90;;;;;;;41.83;16.99;99791.88;4981530;28;96820;-78
2023/07/27 09:09:25;;;;;;;17.88;16.88;;;;;;;40.76;17.28;99793.16;4980413;28;98717;-79
2023/07/27 09:11:52;;;;;;;17.73;16.73;;;;;;;40.00;18.85;99796.84;4973840;28;98430;-79
2023/07/27 09:14:19;;;;;;;18.10;16.88;;;;;;;39.41;19.41;99797.50;4976996;28;99011;-80
2023/07/27 09:16:46;;;;;;;18.25;17.02;;;;;;;38.44;18.99;99793.25;4975516;28;97513;-76
2023/07/27 09:19:12;;;;;;;17.33;16.33;;;;;;;37.72;20.45;99797.31;4985050;28;99194;-76
2023/07/27 09:21:44;;;;;;;18.15;16.95;;;;;;;37.10;20.55;99799.81;4984606;28;98562;-77
2023/07/27 09:24:14;;;;;;;19.42;18.23;;;;;;;36.62;20.54;99793.44;4973164;28;97307;-75
2023/07/27 09:26:48;;;;;;;18.00;16.90;;;;;;;36.16;21.15;99791.41;4981642;28;96788;-75
2023/07/27 09:29:18;;;;;;;17.65;16.58;;;;;;;35.92;22.25;99791.28;4976103;28;98650;-76
2023/07/27 09:31:52;;;;;;;16.95;15.88;;;;;;;35.32;21.54;99785.72;4977404;28;98459;-76
2023/07/27 09:34:19;;;;;;;16.98;15.98;;;;;;;34.06;21.75;99784.00;4981198;28;96914;-76
2023/07/27 09:36:45;;;;;;;17.67;16.67;;;;;;;33.91;21.77;99781.53;4978918;28;97347;-74
2023/07/27 09:39:11;;;;;;;16.95;15.85;;;;;;;33.68;23.32;99788.34;4974254;28;98754;-74
2023/07/27 09:41:37;;;;;;;17.23;16.00;;;;;;;33.55;23.47;99786.50;4988971;28;97551;-76
2023/07/27 09:44:03;;;;;;;17.17;15.95;;;;;;;33.29;23.24;99786.56;4981369;28;96711;-76
2023/07/27 09:46:30;;;;;;;17.23;16.13;;;;;;;33.47;24.07;99785.88;4971644;28;96875;-76
2023/07/27 09:48:57;;;;;;;16.45;15.40;;;;;;;33.77;23.97;99781.63;4972196;28;99102;-74
2023/07/27 09:51:23;;;;;;;17.17;15.82;;;;;;;33.93;23.54;99765.81;4980611;28;98214;-74
2023/07/27 09:53:50;;;;;;;17.50;16.50;;;;;;;33.34;22.85;99779.44;4983327;28;96818;-76
2023/07/27 09:56:16;;;;;;;17.35;16.35;;;;;;;33.27;23.32;99765.00;4972199;28;97073;-83
2023/07/27 09:58:45;;;;;;;16.75;15.75;;;;;;;32.12;23.50;99777.97;4978953;28;99122;-77
2023/07/27 10:01:11;;;;;;;17.80;16.70;;;;;;;31.56;24.01;99772.72;4981123;28;98186;-78
2023/07/27 10:03:37;;;;;;;16.98;15.88;;;;;;;31.42;24.26;99771.00;4978182;28;96789;-79
2023/07/27 10:06:03;;;;;;;17.92;16.83;;;;;;;31.86;24.44;99770.56;4983086;28;96769;-79
2023/07/27 10:08:28;;;;;;;17.42;16.42;;;;;;;32.25;24.83;99758.97;4981746;28;98507;-79
2023/07/27 10:10:54;;;;;;;17.52;16.52;;;;;;;32.21;24.19;99752.28;4993390;28;98854;-79
2023/07/27 10:13:23;;;;;;;17.15;15.98;;;;;;;31.89;24.79;99759.28;4989312;28;96775;-80
2023/07/27 10:15:49;;;;;;;18.83;17.55;;;;;;;31.17;24.18;99762.50;4982559;28;97014;-78
2023/07/27 10:18:15;;;;;;;17.88;16.67;;;;;;;29.08;26.10;99770.44;4976499;28;99193;-78
2023/07/27 10:20:41;;;;;;;17.38;16.30;;;;;;;29.27;26.35;99768.25;4973711;28;98806;-79
2023/07/27 10:23:20;;;;;;;17.77;16.58;;;;;;;28.14;27.37;99755.56;4979502;28;96954;-79
2023/07/27 10:25:55;;;;;;;17.92;16.73;;;;;;;29.28;27.42;99761.78;4973621;28;97215;-78
2023/07/27 10:28:35;;;;;;;17.70;16.60;;;;;;;29.60;28.99;99751.59;4979832;28;99559;-81
2023/07/27 10:31:21;;;;;;;16.23;15.23;;;;;;;29.75;28.86;99750.56;4981336;28;98337;-81
2023/07/27 10:33:55;;;;;;;15.98;14.98;;;;;;;29.92;28.16;99748.47;4976914;28;97587;-81
2023/07/27 10:36:23;;;;;;;16.02;15.13;;;;;;;30.16;27.98;99739.13;4985199;28;96825;-79
2023/07/27 10:38:56;;;;;;;15.75;14.82;;;;;;;30.23;27.79;99740.09;4983077;28;99417;-79
2023/07/27 10:41:24;;;;;;;16.63;15.60;;;;;;;30.36;28.01;99733.94;4984947;28;98508;-79
2023/07/27 10:44:08;;;;;;;16.63;15.40;;;;;;;30.30;27.60;99731.19;4977582;28;97228;-79
2023/07/27 10:46:38;;;;;;;17.30;16.30;;;;;;;30.38;27.16;99737.31;4974398;28;97950;-79
2023/07/27 10:49:10;;;;;;;16.37;15.37;;;;;;;30.34;27.31;99733.31;4986300;28;98549;-79
2023/07/27 10:51:35;;;;;;;15.57;14.57;;;;;;;30.32;27.49;99731.84;4973920;28;98696;-79
2023/07/27 10:54:01;;;;;;;16.60;15.50;;;;;;;30.32;27.07;99723.72;4973942;28;97221;-79
2023/07/27 10:56:27;;;;;;;15.77;14.88;;;;;;;30.23;26.18;99729.25;4976038;28;96793;-77
2023/07/27 10:58:59;;;;;;;16.15;15.20;;;;;;;30.13;26.72;99714.34;4981114;28;98629;-79
2023/07/27 11:01:25;;;;;;;16.38;15.30;;;;;;;29.90;26.89;99703.69;4983823;28;98469;-79
2023/07/27 11:03:51;;;;;;;16.25;15.35;;;;;;;29.89;26.71;99692.06;4983810;28;97113;-79
2023/07/27 11:06:17;;;;;;;15.75;14.85;;;;;;;29.80;26.81;99695.91;4990581;28;96912;-79
2023/07/27 11:08:43;;;;;;;16.20;15.23;;;;;;;29.68;26.96;99705.56;4977722;28;99037;-77
2023/07/27 11:11:20;;;;;;;16.30;15.13;;;;;;;29.51;27.32;99702.22;4986687;28;98603;-79
2023/07/27 11:13:46;;;;;;;16.17;15.02;;;;;;;29.28;27.26;99694.22;4973603;28;97676;-79
2023/07/27 11:16:15;;;;;;;16.88;15.88;;;;;;;29.20;26.89;99692.47;4974216;28;96805;-79
2023/07/27 11:18:41;;;;;;;15.85;14.95;;;;;;;28.93;26.57;99682.31;4972130;28;98684;-79